Aeroporto :
LOGIN :

Iscrizione | Disclaimer

   EN    FR    IT 

 










Sommario :    VFR   VFR Marginale   IFR   IFR Intensivo   IFR Molto Intensivo
Visibilità : 
Base nubi : 
>= 8 km
>= 3000ft
5 / 8 km
1000 / 3000 ft
1500m / 5 km
500 / 1000 ft
800 / 1500m
200 / 500 ft
< 800m
< 200 ft
Simboli :   Temporali  Nebbia  Neve Forte  Precipitazioni Forti  Vento > 20 kt
SIGMETs :   Varie  Temporali  Ghiacco  Turbolenza  Onda orograficha  Ceneri Vulcaniche






- Altitudine del aeroporto : 408 ft
- Codice IATA : SOB


LHSM - Sarmellek Balaton

ULTIMO METAR :
  • 240745Z AUTO 34017KT 300V020 9999 -SHRA SCT010 BKN039 06/04 Q1006 NOSIG

METARs OBSOLETI :
  • 240715Z AUTO 33015G26KT 290V360 9000 -SHRA SCT010 OVC037 05/04 Q1006 NOSIG
  • 240645Z AUTO 33014KT 280V020 9999 -DZ SCT009 BKN034 06/04 Q1006 BECMG SCT010 BKN035
  • 240615Z AUTO 34015G28KT 300V020 6000 -RA BKN010 BKN035 06/05 Q1006 BECMG SCT010 BKN035
  • 240545Z AUTO 33013KT 300V360 7000 -RA BKN008 BKN033 06/05 Q1006 BECMG FM0630 SCT012 BKN025
  • 240515Z AUTO 34011KT 310V010 6000 -RA BKN008 06/05 Q1006 RERA BECMG FM0630 SCT012 BKN025
  • 240445Z AUTO 34011KT 300V010 6000 -RA FEW007 BKN034 05/05 Q1006 RERA
  • 240415Z AUTO 33010KT 6000 RA BKN007 //////TCU 05/05 Q1006
  • 240345Z AUTO 33011KT 300V010 6000 RA BKN009 06/05 Q1006
  • 240315Z AUTO 33010KT 300V010 4900 RA OVC007 06/05 Q1006

TAF TAF LHSM
Valido dal 24 a 06 ore il 24 a 15 ore UTC


240515Z 2406/2415 33015G25KT 8000 -RA SCT008 OVC020
TEMPO 2406/2412 2500 RA BKN004 OVC010
BECMG 2412/2415 33010KT 9999 NSW SCT015 BKN040



MetMap, La meteo Aeronautica in un colpo d'occhio ! - Copyright ORBIFLY Dicembre 2007 - Disclaimer

ORBIFLY MET'MAP TEAM :

Programmazione e sviluppo : Alexandra Zaïnal
Concezione : Baudouin d'Aumeries
Supporto tecnico e logistico : Manuel Goepfert
Aiuto : Marc-Olivier Méhu
Aiuto per la traduzione : Arnaldo La Scala




FONTI E CREDITI :

   NOAA